createdAt,value
2023-03-06T00:00:39.074Z,76.08
2023-03-06T00:03:18.180Z,76.19
2023-03-06T00:05:46.237Z,76.50
2023-03-06T00:08:14.992Z,76.10
2023-03-06T00:10:42.970Z,75.62
2023-03-06T00:13:21.321Z,75.42
2023-03-06T00:15:50.085Z,75.20
2023-03-06T00:18:18.160Z,75.00
2023-03-06T00:20:46.218Z,74.80
2023-03-06T00:23:14.241Z,74.76
2023-03-06T00:25:46.435Z,74.79
2023-03-06T00:28:15.854Z,74.84
2023-03-06T00:30:46.248Z,74.94
2023-03-06T00:33:14.193Z,75.17
2023-03-06T00:35:42.410Z,75.20
2023-03-06T00:38:12.985Z,75.15
2023-03-06T00:40:41.121Z,75.27
2023-03-06T00:43:09.122Z,75.31
2023-03-06T00:45:37.503Z,75.53
2023-03-06T00:48:05.966Z,75.46
2023-03-06T00:50:35.396Z,75.80
2023-03-06T00:53:03.425Z,76.04
2023-03-06T00:55:33.493Z,75.97
2023-03-06T00:58:01.758Z,75.90
2023-03-06T01:00:29.661Z,75.91
2023-03-06T01:02:57.805Z,75.94
2023-03-06T01:05:26.685Z,76.02
2023-03-06T01:07:54.999Z,76.11
2023-03-06T01:10:23.034Z,76.14
2023-03-06T01:12:50.994Z,76.53
2023-03-06T01:15:20.684Z,76.59
2023-03-06T01:17:51.753Z,76.74
2023-03-06T01:20:20.785Z,76.75
2023-03-06T01:22:48.916Z,76.80
2023-03-06T01:25:17.472Z,77.02
2023-03-06T01:27:45.332Z,77.24
2023-03-06T01:30:13.543Z,77.17
2023-03-06T01:32:41.549Z,77.17
2023-03-06T01:35:10.341Z,77.04
2023-03-06T01:37:39.353Z,77.09
2023-03-06T01:40:09.796Z,77.08
2023-03-06T01:42:37.890Z,76.95
2023-03-06T01:45:26.653Z,76.77
2023-03-06T01:47:54.628Z,76.78
2023-03-06T01:50:22.726Z,76.72
2023-03-06T01:52:58.071Z,77.04
2023-03-06T01:55:30.984Z,77.16
2023-03-06T01:58:03.640Z,77.23
2023-03-06T02:00:32.184Z,77.36
2023-03-06T02:03:10.670Z,77.28
2023-03-06T02:05:40.801Z,77.44
2023-03-06T02:08:11.451Z,78.07
2023-03-06T02:11:12.799Z,78.40
2023-03-06T02:13:43.209Z,78.59
2023-03-06T02:16:13.744Z,77.85
2023-03-06T02:18:44.059Z,77.75
2023-03-06T02:21:20.448Z,77.85
2023-03-06T02:24:13.646Z,78.20
2023-03-06T02:26:42.505Z,78.30
2023-03-06T02:29:11.191Z,78.10
2023-03-06T02:31:39.215Z,77.92
2023-03-06T02:34:27.356Z,77.92
2023-03-06T02:37:03.043Z,78.01
2023-03-06T02:39:34.295Z,78.14
2023-03-06T02:42:02.387Z,78.21
2023-03-06T02:44:33.870Z,78.04
2023-03-06T02:47:01.979Z,78.46
2023-03-06T02:49:29.919Z,78.69
2023-03-06T02:51:58.792Z,78.32
2023-03-06T02:54:26.792Z,78.60
2023-03-06T02:56:55.179Z,79.26
2023-03-06T02:59:23.287Z,79.10
2023-03-06T03:01:52.281Z,79.28
2023-03-06T03:04:20.545Z,79.65
2023-03-06T03:06:48.844Z,79.33
2023-03-06T03:09:17.568Z,79.03
2023-03-06T03:11:45.551Z,78.91
2023-03-06T03:14:13.653Z,78.80
2023-03-06T03:16:41.589Z,78.44
2023-03-06T03:19:09.441Z,78.84
2023-03-06T03:21:39.052Z,78.57
2023-03-06T03:24:07.681Z,78.67
2023-03-06T03:26:35.559Z,78.36
2023-03-06T03:29:09.900Z,78.06
2023-03-06T03:31:37.802Z,78.17
2023-03-06T03:34:06.220Z,78.69
2023-03-06T03:36:36.621Z,78.48
2023-03-06T03:39:05.387Z,78.53
2023-03-06T03:41:34.154Z,78.97
2023-03-06T03:44:03.643Z,79.55
2023-03-06T03:46:32.489Z,79.53
2023-03-06T03:49:01.254Z,79.29
2023-03-06T03:51:29.630Z,79.27
2023-03-06T03:53:58.523Z,79.70
2023-03-06T03:56:28.405Z,79.72
2023-03-06T03:59:01.279Z,79.25
2023-03-06T04:01:32.826Z,78.73
2023-03-06T04:04:00.854Z,78.63
2023-03-06T04:06:29.978Z,78.85
2023-03-06T04:08:57.993Z,78.52
2023-03-06T04:11:26.402Z,78.31
2023-03-06T04:13:54.644Z,77.98
2023-03-06T04:16:23.184Z,78.01
2023-03-06T04:18:51.937Z,78.32
2023-03-06T04:21:21.292Z,78.03
2023-03-06T04:23:49.612Z,77.61
2023-03-06T04:26:17.662Z,77.41
2023-03-06T04:28:45.604Z,77.56
2023-03-06T04:31:13.831Z,77.44
2023-03-06T04:33:42.110Z,77.26
2023-03-06T04:36:24.238Z,76.87
2023-03-06T04:38:52.849Z,76.64
2023-03-06T04:41:20.948Z,76.61
2023-03-06T04:43:49.055Z,76.70
2023-03-06T04:46:17.499Z,76.72
2023-03-06T04:48:45.472Z,76.94
2023-03-06T04:51:14.855Z,76.84
2023-03-06T04:53:42.915Z,76.61
2023-03-06T04:56:10.958Z,76.37
2023-03-06T04:58:38.963Z,76.09
2023-03-06T05:01:07.030Z,76.93
2023-03-06T05:03:35.255Z,76.72
2023-03-06T05:06:03.295Z,76.60
2023-03-06T05:08:31.439Z,76.70
2023-03-06T05:11:02.503Z,76.92
2023-03-06T05:13:30.304Z,76.92
2023-03-06T05:16:03.653Z,76.97
2023-03-06T05:18:32.951Z,77.04
2023-03-06T05:21:01.501Z,77.12
2023-03-06T05:23:31.633Z,77.89
2023-03-06T05:25:59.573Z,78.58
2023-03-06T05:28:28.756Z,79.36
2023-03-06T05:30:56.696Z,79.42
2023-03-06T05:33:24.694Z,79.48
2023-03-06T05:35:52.947Z,79.79
2023-03-06T05:38:23.068Z,80.00
2023-03-06T05:40:50.975Z,80.31
2023-03-06T05:43:19.046Z,80.66
2023-03-06T05:45:50.568Z,80.53
2023-03-06T05:48:18.972Z,80.53
2023-03-06T05:50:46.933Z,80.75
2023-03-06T05:53:14.852Z,80.62
2023-03-06T05:55:42.774Z,80.54
2023-03-06T05:58:10.668Z,80.38
2023-03-06T06:00:38.675Z,80.37
2023-03-06T06:03:12.452Z,80.11
2023-03-06T06:05:41.255Z,80.00
2023-03-06T06:08:09.355Z,79.61
2023-03-06T06:10:38.133Z,79.60
2023-03-06T06:13:06.085Z,78.86
2023-03-06T06:15:34.166Z,78.81
2023-03-06T06:18:02.132Z,79.03
2023-03-06T06:20:30.279Z,78.57
2023-03-06T06:22:58.630Z,78.35
2023-03-06T06:25:28.980Z,78.15
2023-03-06T06:27:58.000Z,77.98
2023-03-06T06:30:26.054Z,77.74
2023-03-06T06:32:54.483Z,77.79
2023-03-06T06:35:25.886Z,77.64
2023-03-06T06:37:56.539Z,77.37
2023-03-06T06:40:27.618Z,77.29
2023-03-06T06:42:55.665Z,77.20
2023-03-06T06:45:23.680Z,77.13
2023-03-06T06:47:52.088Z,76.97
2023-03-06T06:50:20.271Z,77.05
2023-03-06T06:52:48.351Z,77.35
2023-03-06T06:55:16.565Z,77.45
2023-03-06T06:57:44.598Z,77.32
2023-03-06T07:00:14.705Z,77.00
2023-03-06T07:02:42.715Z,76.56
2023-03-06T07:05:10.887Z,76.89
2023-03-06T07:07:39.049Z,76.63
2023-03-06T07:10:13.514Z,76.55
2023-03-06T07:12:41.973Z,76.92
2023-03-06T07:15:14.417Z,76.49
2023-03-06T07:17:42.606Z,76.55
2023-03-06T07:20:12.759Z,76.39
2023-03-06T07:22:50.404Z,75.83
2023-03-06T07:25:19.715Z,75.78
2023-03-06T07:27:53.257Z,76.18
2023-03-06T07:30:23.334Z,76.10
2023-03-06T07:32:56.569Z,76.02
2023-03-06T07:35:25.297Z,75.86
2023-03-06T07:37:53.612Z,75.76
2023-03-06T07:40:21.912Z,76.10
2023-03-06T07:42:50.050Z,75.92
2023-03-06T07:45:20.268Z,75.30
2023-03-06T07:47:52.635Z,73.97
2023-03-06T07:50:21.714Z,74.53
2023-03-06T07:52:50.926Z,72.99
2023-03-06T07:55:18.987Z,71.40
2023-03-06T07:57:50.593Z,71.05
2023-03-06T08:00:19.473Z,70.54
2023-03-06T08:02:47.542Z,70.66
2023-03-06T08:05:17.153Z,71.18
2023-03-06T08:07:45.754Z,70.57
2023-03-06T08:10:15.530Z,70.80
2023-03-06T08:12:44.034Z,69.81
2023-03-06T08:15:12.792Z,68.92
2023-03-06T08:17:40.871Z,69.58
2023-03-06T08:20:10.440Z,69.33
2023-03-06T08:22:38.947Z,68.35
2023-03-06T08:25:08.159Z,67.83
2023-03-06T08:27:36.497Z,68.05
2023-03-06T08:30:06.290Z,67.95
2023-03-06T08:32:38.252Z,66.68
2023-03-06T08:35:07.112Z,65.43
2023-03-06T08:37:35.184Z,65.28
2023-03-06T08:40:04.800Z,64.59
2023-03-06T08:42:33.175Z,64.47
2023-03-06T08:45:01.377Z,64.06
2023-03-06T08:47:29.646Z,64.08
2023-03-06T08:50:00.407Z,64.56
2023-03-06T08:52:28.793Z,64.91
2023-03-06T08:54:58.120Z,64.65
2023-03-06T08:57:26.256Z,64.83
2023-03-06T08:59:54.515Z,63.61
2023-03-06T09:02:22.708Z,62.98
2023-03-06T09:04:50.904Z,62.48
2023-03-06T09:07:19.050Z,62.39
2023-03-06T09:09:47.171Z,63.13
2023-03-06T09:12:16.202Z,63.68
2023-03-06T09:14:44.246Z,63.27
2023-03-06T09:17:12.215Z,62.91
2023-03-06T09:19:40.258Z,62.89
2023-03-06T09:22:08.331Z,62.88
2023-03-06T09:24:36.956Z,63.25
2023-03-06T09:27:05.074Z,63.49
2023-03-06T09:29:33.257Z,63.60
2023-03-06T09:32:01.366Z,63.31
2023-03-06T09:34:29.546Z,63.29
2023-03-06T09:36:57.791Z,61.72
2023-03-06T09:39:27.443Z,61.08
2023-03-06T09:41:57.706Z,60.59
2023-03-06T09:44:29.924Z,59.58
2023-03-06T09:47:16.265Z,59.94
2023-03-06T09:50:05.475Z,59.61
2023-03-06T09:52:36.356Z,59.18
2023-03-06T09:55:10.500Z,59.27
2023-03-06T09:57:42.981Z,59.37
2023-03-06T10:00:17.097Z,58.48
2023-03-06T10:02:53.692Z,58.43
2023-03-06T10:05:33.406Z,58.34
2023-03-06T10:08:03.516Z,58.36
2023-03-06T10:10:44.979Z,58.57
2023-03-06T10:13:25.294Z,57.96
2023-03-06T10:15:59.428Z,57.25
2023-03-06T10:18:27.909Z,56.19
2023-03-06T10:21:18.372Z,56.78
2023-03-06T10:23:55.155Z,57.03
2023-03-06T10:26:33.665Z,55.80
2023-03-06T10:29:14.724Z,55.76
2023-03-06T10:31:54.264Z,54.87
2023-03-06T10:34:33.644Z,54.67
2023-03-06T10:37:13.577Z,54.03
2023-03-06T10:39:41.488Z,53.87
2023-03-06T10:42:10.563Z,54.39
2023-03-06T10:44:39.118Z,53.97
2023-03-06T10:47:30.095Z,54.48
2023-03-06T10:50:01.080Z,55.14
2023-03-06T10:52:32.911Z,55.81
2023-03-06T10:55:24.570Z,54.55
2023-03-06T10:57:52.717Z,53.60
2023-03-06T11:00:30.231Z,51.72
2023-03-06T11:03:17.851Z,52.15
2023-03-06T11:06:05.257Z,50.87
2023-03-06T11:08:35.550Z,50.53
2023-03-06T11:11:22.431Z,50.93
2023-03-06T11:13:59.188Z,51.24
2023-03-06T11:16:30.796Z,51.40
2023-03-06T11:19:17.648Z,51.21
2023-03-06T11:22:00.224Z,50.42
2023-03-06T11:24:36.505Z,50.81
2023-03-06T11:27:34.454Z,50.56
2023-03-06T11:30:18.410Z,49.79
2023-03-06T11:32:54.066Z,49.51
2023-03-06T11:35:29.046Z,49.59
2023-03-06T11:38:20.599Z,49.58
2023-03-06T11:41:00.734Z,49.88
2023-03-06T11:43:52.824Z,50.07
2023-03-06T11:46:28.899Z,49.67
2023-03-06T11:49:13.920Z,50.73
2023-03-06T11:51:48.218Z,51.30
2023-03-06T11:54:16.456Z,49.81
2023-03-06T11:56:51.813Z,50.08
2023-03-06T11:59:31.925Z,51.37
2023-03-06T12:02:33.831Z,51.54
2023-03-06T12:05:23.651Z,51.14
2023-03-06T12:08:01.649Z,51.35
2023-03-06T12:10:51.528Z,51.44
2023-03-06T12:13:35.858Z,51.74
2023-03-06T12:16:25.650Z,52.26
2023-03-06T12:19:18.653Z,51.96
2023-03-06T12:22:06.389Z,51.02
2023-03-06T12:25:18.555Z,50.40
2023-03-06T12:28:09.736Z,50.26
2023-03-06T12:30:53.150Z,50.83
2023-03-06T12:33:34.349Z,50.75
2023-03-06T12:36:33.022Z,50.88
2023-03-06T12:39:17.019Z,50.94
2023-03-06T12:42:17.853Z,50.62
2023-03-06T12:45:14.665Z,49.68
2023-03-06T12:47:46.634Z,49.63
2023-03-06T12:50:37.078Z,50.69
2023-03-06T12:53:12.991Z,50.27
2023-03-06T12:55:45.127Z,50.73
2023-03-06T12:58:28.376Z,50.56
2023-03-06T13:01:45.574Z,49.37
2023-03-06T13:04:28.121Z,49.00
2023-03-06T13:07:07.964Z,49.24
2023-03-06T13:10:16.596Z,49.47
2023-03-06T13:12:55.704Z,49.25
2023-03-06T13:15:37.071Z,49.17
2023-03-06T13:18:23.561Z,49.12
2023-03-06T13:20:54.959Z,48.93
2023-03-06T13:23:32.066Z,48.99
2023-03-06T13:26:02.108Z,48.64
2023-03-06T13:28:50.228Z,48.26
2023-03-06T13:31:33.752Z,48.61
2023-03-06T13:34:05.519Z,48.74
2023-03-06T13:36:36.700Z,48.91
2023-03-06T13:39:13.201Z,48.67
2023-03-06T13:41:43.068Z,48.67
2023-03-06T13:44:31.310Z,48.46
2023-03-06T13:47:24.889Z,48.39
2023-03-06T13:49:53.071Z,48.25
2023-03-06T13:52:28.177Z,48.49
2023-03-06T13:55:10.551Z,48.47
2023-03-06T13:57:41.526Z,48.46
2023-03-06T14:00:21.987Z,48.77
2023-03-06T14:03:25.200Z,48.66
2023-03-06T14:05:53.371Z,48.54
2023-03-06T14:08:28.871Z,49.06
2023-03-06T14:11:27.312Z,48.15
2023-03-06T14:13:57.364Z,47.84
2023-03-06T14:16:32.718Z,48.05
2023-03-06T14:19:08.679Z,48.53
2023-03-06T14:21:47.803Z,49.10
2023-03-06T14:24:19.363Z,49.22
2023-03-06T14:26:50.569Z,48.96
2023-03-06T14:29:22.859Z,48.90
2023-03-06T14:31:56.197Z,48.67
2023-03-06T14:34:28.576Z,48.66
2023-03-06T14:37:08.275Z,49.22
2023-03-06T14:39:41.834Z,49.25
2023-03-06T14:42:15.666Z,49.72
2023-03-06T14:44:44.960Z,50.08
2023-03-06T14:47:26.584Z,50.16
2023-03-06T14:50:20.180Z,50.33
2023-03-06T14:52:49.866Z,50.35
2023-03-06T14:55:24.003Z,50.68
2023-03-06T14:57:58.163Z,50.59
2023-03-06T15:00:41.391Z,50.51
2023-03-06T15:03:26.460Z,51.06
2023-03-06T15:05:56.987Z,51.45
2023-03-06T15:08:30.562Z,51.90
2023-03-06T15:11:03.348Z,52.39
2023-03-06T15:13:32.899Z,52.38
2023-03-06T15:16:02.402Z,52.65
2023-03-06T15:18:56.367Z,52.75
2023-03-06T15:21:26.863Z,52.57
2023-03-06T15:23:57.523Z,52.79
2023-03-06T15:26:34.008Z,52.99
2023-03-06T15:29:11.399Z,53.21
2023-03-06T15:31:48.663Z,53.47
2023-03-06T15:34:23.758Z,53.38
2023-03-06T15:36:57.558Z,53.81
2023-03-06T15:39:36.579Z,53.60
2023-03-06T15:42:07.269Z,53.53
2023-03-06T15:44:35.416Z,53.47
2023-03-06T15:47:08.801Z,53.64
2023-03-06T15:49:38.971Z,54.07
2023-03-06T15:52:08.080Z,54.51
2023-03-06T15:54:36.889Z,54.68
2023-03-06T15:57:07.357Z,54.74
2023-03-06T15:59:43.979Z,55.37
2023-03-06T16:02:18.474Z,55.32
2023-03-06T16:04:47.628Z,55.39
2023-03-06T16:07:15.916Z,55.68
2023-03-06T16:09:44.920Z,55.82
2023-03-06T16:12:17.480Z,56.05
2023-03-06T16:14:51.419Z,56.35
2023-03-06T16:17:19.419Z,56.38
2023-03-06T16:19:47.459Z,56.55
2023-03-06T16:22:15.332Z,56.72
2023-03-06T16:24:43.334Z,56.73
2023-03-06T16:27:18.966Z,56.75
2023-03-06T16:29:47.302Z,56.84
2023-03-06T16:32:15.362Z,57.09
2023-03-06T16:34:43.765Z,57.18
2023-03-06T16:37:14.339Z,57.44
2023-03-06T16:39:42.724Z,58.04
2023-03-06T16:42:11.592Z,57.91
2023-03-06T16:44:39.914Z,57.86
2023-03-06T16:47:12.521Z,58.00
2023-03-06T16:49:40.696Z,57.91
2023-03-06T16:52:11.504Z,57.86
2023-03-06T16:54:39.449Z,58.02
2023-03-06T16:57:07.489Z,58.42
2023-03-06T16:59:35.557Z,58.49
2023-03-06T17:02:03.819Z,58.43
2023-03-06T17:04:34.420Z,58.31
2023-03-06T17:07:03.238Z,58.08
2023-03-06T17:09:31.766Z,57.94
2023-03-06T17:12:00.042Z,57.99
2023-03-06T17:14:28.191Z,58.33
2023-03-06T17:16:56.372Z,58.14
2023-03-06T17:19:24.498Z,58.14
2023-03-06T17:21:52.605Z,58.25
2023-03-06T17:24:20.905Z,58.24
2023-03-06T17:26:49.051Z,58.36
2023-03-06T17:29:17.310Z,58.57
2023-03-06T17:31:46.816Z,58.66
2023-03-06T17:34:15.101Z,58.93
2023-03-06T17:36:44.170Z,59.18
2023-03-06T17:39:13.104Z,59.39
2023-03-06T17:41:46.237Z,59.28
2023-03-06T17:44:19.927Z,59.50
2023-03-06T17:46:48.413Z,59.53
2023-03-06T17:49:23.361Z,59.65
2023-03-06T17:51:52.546Z,59.45
2023-03-06T17:54:21.376Z,59.83
2023-03-06T17:56:55.104Z,59.94
2023-03-06T17:59:23.195Z,59.84
2023-03-06T18:01:57.504Z,59.86
2023-03-06T18:04:32.495Z,59.74
2023-03-06T18:07:00.752Z,59.79
2023-03-06T18:09:29.723Z,59.78
2023-03-06T18:11:57.874Z,59.96
2023-03-06T18:14:25.917Z,60.08
2023-03-06T18:16:54.660Z,60.02
2023-03-06T18:19:22.834Z,60.23
2023-03-06T18:21:51.009Z,59.89
2023-03-06T18:24:19.076Z,59.97
2023-03-06T18:26:47.239Z,60.25
2023-03-06T18:29:15.279Z,60.35
2023-03-06T18:31:50.078Z,60.47
2023-03-06T18:34:18.596Z,60.63
2023-03-06T18:36:52.038Z,60.85
2023-03-06T18:39:21.546Z,61.04
2023-03-06T18:41:49.824Z,61.32
2023-03-06T18:44:19.137Z,61.40
2023-03-06T18:46:49.734Z,61.58
2023-03-06T18:49:18.036Z,61.48
2023-03-06T18:51:50.220Z,61.75
2023-03-06T18:54:18.668Z,62.07
2023-03-06T18:56:46.689Z,62.03
2023-03-06T18:59:18.517Z,62.20
2023-03-06T19:01:47.911Z,62.17
2023-03-06T19:04:23.741Z,62.25
2023-03-06T19:06:55.694Z,62.32
2023-03-06T19:09:24.407Z,62.26
2023-03-06T19:11:54.851Z,62.55
2023-03-06T19:14:23.249Z,63.11
2023-03-06T19:16:51.516Z,63.56
2023-03-06T19:19:19.926Z,64.23
2023-03-06T19:21:48.054Z,64.86
2023-03-06T19:24:16.395Z,65.69
2023-03-06T19:26:44.561Z,66.32
2023-03-06T19:29:12.700Z,66.40
2023-03-06T19:31:42.271Z,66.79
2023-03-06T19:34:10.704Z,67.63
2023-03-06T19:36:41.010Z,68.32
2023-03-06T19:39:09.602Z,69.10
2023-03-06T19:41:37.651Z,69.91
2023-03-06T19:44:06.134Z,70.44
2023-03-06T19:46:36.223Z,71.68
2023-03-06T19:49:11.783Z,72.09
2023-03-06T19:51:39.975Z,73.12
2023-03-06T19:54:09.593Z,73.86
2023-03-06T19:56:37.671Z,74.84
2023-03-06T19:59:05.569Z,76.39
2023-03-06T20:01:34.555Z,77.54
2023-03-06T20:04:03.401Z,78.17
2023-03-06T20:06:33.767Z,78.64
2023-03-06T20:09:05.288Z,79.60
2023-03-06T20:11:33.372Z,81.03
2023-03-06T20:14:03.737Z,82.35
2023-03-06T20:16:32.701Z,83.60
2023-03-06T20:19:01.438Z,84.80
2023-03-06T20:21:32.194Z,86.22
2023-03-06T20:24:00.155Z,86.99
2023-03-06T20:26:29.403Z,87.79
2023-03-06T20:28:57.837Z,88.35
2023-03-06T20:31:28.559Z,90.92
2023-03-06T20:33:58.628Z,91.49
2023-03-06T20:36:30.234Z,92.34
2023-03-06T20:39:03.064Z,93.25
2023-03-06T20:41:31.893Z,94.89
2023-03-06T20:44:02.149Z,95.15
2023-03-06T20:46:30.679Z,94.95
2023-03-06T20:48:59.686Z,94.94
2023-03-06T20:51:33.458Z,95.93
2023-03-06T20:54:02.231Z,96.30
2023-03-06T20:56:35.507Z,96.68
2023-03-06T20:59:11.644Z,97.21
2023-03-06T21:01:45.430Z,98.56
2023-03-06T21:04:14.888Z,99.13
2023-03-06T21:06:47.236Z,98.70
2023-03-06T21:09:17.422Z,98.92
2023-03-06T21:11:46.279Z,99.80
2023-03-06T21:14:15.041Z,99.79
2023-03-06T21:16:43.955Z,100.00
2023-03-06T21:19:11.921Z,100.00
2023-03-06T21:21:39.827Z,99.97
2023-03-06T21:24:08.371Z,100.00
2023-03-06T21:26:36.544Z,100.00
2023-03-06T21:29:04.918Z,100.00
2023-03-06T21:31:33.600Z,100.00
2023-03-06T21:34:04.499Z,100.00
2023-03-06T21:36:33.536Z,100.00
2023-03-06T21:39:01.453Z,100.00
2023-03-06T21:41:31.289Z,100.00
2023-03-06T21:44:01.820Z,100.00
2023-03-06T21:46:30.191Z,100.00
2023-03-06T21:48:59.054Z,100.00
2023-03-06T21:51:27.120Z,100.00
2023-03-06T21:53:55.862Z,100.00
2023-03-06T21:56:25.438Z,100.00
2023-03-06T21:58:54.348Z,100.00
2023-03-06T22:01:28.506Z,100.00
2023-03-06T22:03:58.786Z,100.00
2023-03-06T22:06:28.626Z,100.00
2023-03-06T22:08:58.350Z,100.00
2023-03-06T22:11:29.832Z,100.00
2023-03-06T22:13:58.240Z,100.00
2023-03-06T22:16:26.360Z,100.00
2023-03-06T22:18:54.384Z,100.00
2023-03-06T22:21:23.449Z,100.00
2023-03-06T22:23:54.630Z,100.00
2023-03-06T22:26:23.746Z,100.00
2023-03-06T22:28:52.159Z,100.00
2023-03-06T22:31:25.695Z,100.00
2023-03-06T22:33:55.064Z,100.00
2023-03-06T22:36:24.177Z,100.00
2023-03-06T22:38:58.612Z,100.00
2023-03-06T22:41:27.390Z,100.00
2023-03-06T22:43:57.168Z,100.00
2023-03-06T22:46:25.871Z,100.00
2023-03-06T22:49:01.570Z,100.00
2023-03-06T22:51:29.810Z,100.00
2023-03-06T22:53:58.339Z,100.00
2023-03-06T22:56:26.336Z,100.00
2023-03-06T22:58:54.427Z,100.00
2023-03-06T23:01:25.348Z,100.00
2023-03-06T23:03:54.668Z,100.00
2023-03-06T23:06:28.589Z,100.00
2023-03-06T23:09:08.946Z,100.00
2023-03-06T23:11:55.539Z,100.00
2023-03-06T23:14:41.935Z,100.00
2023-03-06T23:17:28.688Z,100.00
2023-03-06T23:20:15.280Z,100.00
2023-03-06T23:23:02.047Z,100.00
2023-03-06T23:25:43.627Z,100.00
2023-03-06T23:28:11.971Z,100.00
2023-03-06T23:30:40.176Z,100.00
2023-03-06T23:33:08.638Z,100.00
2023-03-06T23:35:39.159Z,100.00
2023-03-06T23:38:07.371Z,100.00
2023-03-06T23:40:37.326Z,100.00
2023-03-06T23:43:05.980Z,100.00
2023-03-06T23:45:34.422Z,100.00
2023-03-06T23:48:02.321Z,100.00
2023-03-06T23:50:30.402Z,100.00
2023-03-06T23:52:58.275Z,100.00
2023-03-06T23:55:26.230Z,100.00
2023-03-06T23:57:54.444Z,100.00
